Time;durP1;ratioP1;P1;durP2;ratioP2;P2;SDS_P1;SDS_P2;PMS_P1;PMS_P2;Temp;Humidity;BMP_temperature;BMP_pressure;BME280_temperature;BME280_humidity;BME280_pressure;Samples;Min_cycle;Max_cycle;Signal;HPM_P1;HPM_P2
2021/07/26 00:00:43;;;;;;;;;11.50;8.75;;;;;21.71;50.71;100508.56;5082920;28;45231;-58
2021/07/26 00:03:08;;;;;;;;;8.00;8.00;;;;;21.69;51.07;100500.66;5082669;28;45266;-58
2021/07/26 00:05:33;;;;;;;;;9.00;9.00;;;;;21.69;51.07;100499.81;5076834;28;45160;-58
2021/07/26 00:07:59;;;;;;;;;13.00;11.25;;;;;21.69;50.85;100498.00;5077282;28;45356;-58
2021/07/26 00:10:24;;;;;;;;;9.00;9.00;;;;;21.71;51.44;100497.88;5082582;28;48532;-58
2021/07/26 00:12:49;;;;;;;;;7.75;7.75;;;;;21.67;51.39;100494.56;5082534;28;45222;-58
2021/07/26 00:15:15;;;;;;;;;10.50;10.00;;;;;21.71;51.43;100496.09;5082878;28;45249;-58
2021/07/26 00:17:41;;;;;;;;;12.75;10.50;;;;;21.63;50.81;100486.84;5098254;27;47157;-58
2021/07/26 00:20:07;;;;;;;;;9.50;8.25;;;;;21.71;51.46;100490.75;5082385;28;45487;-58
2021/07/26 00:22:33;;;;;;;;;9.25;8.00;;;;;21.70;51.02;100483.66;5100141;27;45402;-58
2021/07/26 00:24:58;;;;;;;;;10.25;10.25;;;;;21.69;51.16;100487.28;5102990;27;45494;-58
2021/07/26 00:27:23;;;;;;;;;9.50;9.50;;;;;21.73;50.95;100485.28;5102743;27;46300;-58
2021/07/26 00:29:49;;;;;;;;;10.75;8.50;;;;;21.73;51.22;100482.59;5102726;27;45284;-58
2021/07/26 00:32:14;;;;;;;;;8.50;7.50;;;;;21.73;51.30;100480.78;5084590;27;45254;-58
2021/07/26 00:34:39;;;;;;;;;8.50;8.50;;;;;21.75;51.27;100489.56;5102571;27;45304;-58
2021/07/26 00:37:05;;;;;;;;;10.50;9.50;;;;;21.75;51.33;100486.91;5102803;27;46334;-58
2021/07/26 00:39:32;;;;;;;;;8.75;8.75;;;;;21.74;51.03;100490.53;5102647;27;45252;-59
2021/07/26 00:41:58;;;;;;;;;11.75;11.50;;;;;21.75;51.41;100489.56;5102754;27;45323;-58
2021/07/26 00:44:25;;;;;;;;;8.75;7.25;;;;;21.74;51.52;100497.69;5102438;27;46267;-58
2021/07/26 00:46:52;;;;;;;;;8.50;7.00;;;;;21.77;51.29;100496.63;5102588;27;46138;-58
2021/07/26 00:49:19;;;;;;;;;8.75;7.00;;;;;21.74;51.08;100495.88;5102116;27;45379;-58
2021/07/26 00:51:47;;;;;;;;;11.75;10.00;;;;;21.74;51.23;100495.88;5102451;27;45446;-58
2021/07/26 00:54:15;;;;;;;;;11.00;9.75;;;;;21.74;51.19;100495.88;5102306;27;45364;-58
2021/07/26 00:56:41;;;;;;;;;10.25;10.25;;;;;21.73;51.43;100494.16;5102149;27;45272;-59
2021/07/26 00:59:08;;;;;;;;;13.00;10.25;;;;;21.72;51.20;100491.59;5080644;28;45974;-58
2021/07/26 01:01:34;;;;;;;;;12.50;11.25;;;;;21.70;51.43;100499.72;5095609;27;45320;-58
2021/07/26 01:03:59;;;;;;;;;9.50;8.75;;;;;21.71;51.07;100501.44;5102011;27;45498;-58
2021/07/26 01:06:25;;;;;;;;;11.25;10.25;;;;;21.71;51.07;100503.22;5088678;27;48868;-58
2021/07/26 01:08:50;;;;;;;;;11.00;10.50;;;;;21.68;51.33;100501.63;5101741;27;45437;-58
2021/07/26 01:11:16;;;;;;;;;12.50;11.25;;;;;21.68;51.68;100498.94;5102297;27;45375;-58
2021/07/26 01:13:42;;;;;;;;;13.25;11.00;;;;;21.69;51.49;100499.81;5102042;27;45181;-58
2021/07/26 01:16:07;;;;;;;;;11.00;11.00;;;;;21.66;51.24;100487.50;5102073;27;46314;-59
2021/07/26 01:18:34;;;;;;;;;13.25;10.50;;;;;21.70;51.61;100496.19;5101825;27;45267;-58
2021/07/26 01:21:02;;;;;;;;;11.50;10.75;;;;;21.69;51.56;100506.00;5102018;27;45445;-58
2021/07/26 01:23:30;;;;;;;;;16.75;14.75;;;;;21.68;51.31;100504.28;5101889;27;45496;-58
2021/07/26 01:25:56;;;;;;;;;16.25;14.75;;;;;21.65;51.08;100501.81;5101743;27;46207;-58
2021/07/26 01:28:23;;;;;;;;;14.50;14.50;;;;;21.61;51.78;100503.00;5101749;27;45264;-58
2021/07/26 01:30:49;;;;;;;;;14.00;13.50;;;;;21.61;51.44;100502.13;5101634;27;45457;-58
2021/07/26 01:33:16;;;;;;;;;15.50;13.50;;;;;21.59;51.63;100504.91;5101220;27;45231;-58
2021/07/26 01:35:42;;;;;;;;;12.50;12.25;;;;;21.54;51.46;100510.50;5101767;27;45524;-59
2021/07/26 01:38:08;;;;;;;;;16.25;13.75;;;;;21.53;51.21;100507.94;5101633;27;45363;-58
2021/07/26 01:40:35;;;;;;;;;15.00;13.00;;;;;21.48;51.50;100510.03;5101726;27;45304;-58
2021/07/26 01:43:03;;;;;;;;;18.00;16.25;;;;;21.47;51.71;100509.19;5101673;27;45310;-58
2021/07/26 01:45:32;;;;;;;;;16.00;13.00;;;;;21.46;50.97;100512.81;5101414;27;47067;-58
2021/07/26 01:48:14;;;;;;;;;13.50;13.50;;;;;21.44;51.28;100512.03;5101704;27;45295;-58
2021/07/26 01:50:50;;;;;;;;;14.00;14.00;;;;;21.41;50.96;100507.75;5101471;27;45330;-58
2021/07/26 01:53:16;;;;;;;;;15.50;13.00;;;;;21.42;51.46;100511.28;5101535;27;45250;-59
2021/07/26 01:55:42;;;;;;;;;12.00;12.00;;;;;21.39;50.84;100506.97;5101203;27;46172;-59
2021/07/26 01:58:07;;;;;;;;;13.50;13.00;;;;;21.40;51.21;100521.22;5101428;27;45278;-58
2021/07/26 02:00:32;;;;;;;;;14.75;14.75;;;;;21.37;51.31;100508.91;5101430;27;45335;-59
2021/07/26 02:02:58;;;;;;;;;13.25;11.00;;;;;21.38;51.29;100529.34;5101552;27;45302;-58
2021/07/26 02:05:24;;;;;;;;;14.50;13.75;;;;;21.39;51.39;100527.50;5096146;27;45827;-59
2021/07/26 02:07:49;;;;;;;;;15.50;13.25;;;;;21.38;51.01;100529.34;5091891;27;45390;-58
2021/07/26 02:10:14;;;;;;;;;13.50;12.00;;;;;21.40;51.16;100535.44;5079596;28;45844;-58
2021/07/26 02:12:40;;;;;;;;;11.00;9.50;;;;;21.36;50.92;100525.06;5092865;27;45449;-58
2021/07/26 02:15:05;;;;;;;;;12.00;11.25;;;;;21.37;51.39;100530.28;5101071;27;46287;-58
2021/07/26 02:17:31;;;;;;;;;9.00;8.50;;;;;21.36;50.82;100527.72;5101161;27;45325;-58
2021/07/26 02:19:56;;;;;;;;;9.25;8.75;;;;;21.33;50.87;100539.44;5099632;27;45337;-58
2021/07/26 02:22:22;;;;;;;;;8.00;8.00;;;;;21.32;51.22;100543.09;5100944;27;45315;-58
2021/07/26 02:24:47;;;;;;;;;11.50;10.75;;;;;21.30;50.67;100542.31;5100895;27;46041;-58
2021/07/26 02:27:14;;;;;;;;;10.25;10.25;;;;;21.27;50.61;100546.03;5100931;27;45303;-58
2021/07/26 02:29:40;;;;;;;;;9.50;7.75;;;;;21.30;51.03;100544.13;5079253;28;45280;-58
2021/07/26 02:32:05;;;;;;;;;7.75;6.50;;;;;21.28;50.62;100552.22;5092941;27;45224;-58
2021/07/26 02:34:31;;;;;;;;;8.00;8.00;;;;;21.23;51.17;100551.66;5100461;27;46231;-58
2021/07/26 02:36:56;;;;;;;;;8.50;7.00;;;;;21.23;51.25;100551.66;5079226;28;45193;-58
2021/07/26 02:39:21;;;;;;;;;6.50;6.50;;;;;21.19;50.95;100550.13;5099333;27;45230;-58
2021/07/26 02:41:47;;;;;;;;;6.00;6.00;;;;;21.19;50.58;100558.16;5100669;27;45491;-58
2021/07/26 02:44:12;;;;;;;;;8.75;6.25;;;;;21.18;51.02;100551.97;5100209;27;45314;-58
2021/07/26 02:46:37;;;;;;;;;7.75;7.00;;;;;21.16;50.57;100556.53;5100327;27;45346;-58
2021/07/26 02:49:03;;;;;;;;;7.75;7.00;;;;;21.15;51.09;100549.47;5100645;27;45260;-58
2021/07/26 02:51:28;;;;;;;;;10.25;8.50;;;;;21.14;50.64;100550.41;5082437;27;45420;-58
2021/07/26 02:53:53;;;;;;;;;13.00;9.25;;;;;21.16;51.15;100547.66;5100460;27;46270;-58
2021/07/26 02:56:19;;;;;;;;;10.50;10.25;;;;;21.13;50.49;100553.19;5100718;27;45316;-58
2021/07/26 02:58:44;;;;;;;;;11.00;8.50;;;;;21.13;50.57;100547.84;5078764;28;45323;-58
2021/07/26 03:01:10;;;;;;;;;9.50;8.75;;;;;21.12;50.98;100557.69;5092079;27;45353;-58
2021/07/26 03:03:36;;;;;;;;;11.75;10.00;;;;;21.10;50.99;100559.56;5100220;27;46309;-58
2021/07/26 03:06:01;;;;;;;;;12.25;12.00;;;;;21.07;50.63;100562.44;5090438;27;45466;-58
2021/07/26 03:08:28;;;;;;;;;11.00;10.75;;;;;21.03;50.99;100561.78;5098667;27;45297;-59
2021/07/26 03:11:00;;;;;;;;;11.50;11.00;;;;;21.03;50.91;100560.91;5100411;27;45210;-58
2021/07/26 03:13:26;;;;;;;;;15.75;13.50;;;;;21.01;50.82;100555.66;5099977;27;46159;-59
2021/07/26 03:15:51;;;;;;;;;11.75;10.25;;;;;20.99;51.31;100565.56;5100345;27;45324;-58
2021/07/26 03:18:16;;;;;;;;;13.75;11.00;;;;;20.92;51.27;100550.88;5100242;27;45255;-58
2021/07/26 03:20:42;;;;;;;;;13.50;12.75;;;;;20.93;50.62;100557.94;5100282;27;45479;-58
2021/07/26 03:23:08;;;;;;;;;15.50;13.00;;;;;20.88;50.80;100560.88;5100073;27;46102;-58
2021/07/26 03:25:38;;;;;;;;;13.25;12.50;;;;;20.83;51.02;100557.63;5100332;27;45185;-59
2021/07/26 03:28:04;;;;;;;;;14.00;12.00;;;;;20.82;51.23;100557.72;5098879;27;45361;-58
2021/07/26 03:30:29;;;;;;;;;17.75;15.00;;;;;20.77;51.50;100563.34;5100098;27;45471;-58
2021/07/26 03:32:55;;;;;;;;;11.00;11.00;;;;;20.72;50.98;100558.28;5099602;27;46445;-59
2021/07/26 03:35:22;;;;;;;;;12.50;11.25;;;;;20.70;51.25;100562.81;5098889;27;45267;-59
2021/07/26 03:37:48;;;;;;;;;15.25;12.00;;;;;20.68;51.19;100567.38;5100244;27;45395;-58
2021/07/26 03:40:13;;;;;;;;;15.25;11.75;;;;;20.67;51.03;100564.81;5081645;27;45474;-59
2021/07/26 03:42:41;;;;;;;;;12.75;11.25;;;;;20.66;51.04;100565.75;5099826;27;46024;-58
2021/07/26 03:45:08;;;;;;;;;12.50;10.75;;;;;20.63;51.13;100561.47;5099986;27;45245;-58
2021/07/26 03:47:34;;;;;;;;;14.00;12.75;;;;;20.63;51.58;100564.13;5099948;27;45386;-58
2021/07/26 03:50:00;;;;;;;;;13.50;10.75;;;;;20.59;51.16;100567.91;5099627;27;45322;-58
2021/07/26 03:52:25;;;;;;;;;15.75;14.00;;;;;20.57;51.63;100564.50;5099640;27;46328;-58
2021/07/26 03:54:55;;;;;;;;;14.75;14.00;;;;;20.58;51.57;100571.56;5099893;27;45333;-58
2021/07/26 03:57:20;;;;;;;;;17.50;17.25;;;;;20.56;51.25;100570.78;5102326;27;45272;-58
2021/07/26 03:59:45;;;;;;;;;14.75;14.25;;;;;20.53;51.75;100578.97;5103189;27;45217;-59
2021/07/26 04:02:11;;;;;;;;;15.00;14.00;;;;;20.52;51.56;100583.44;5103238;27;45294;-58
2021/07/26 04:04:36;;;;;;;;;16.50;14.25;;;;;20.50;51.56;100579.16;5103083;27;45153;-58
2021/07/26 04:07:05;;;;;;;;;18.00;17.25;;;;;20.50;51.65;100576.47;5090489;27;45409;-58
2021/07/26 04:09:37;;;;;;;;;18.00;14.50;;;;;20.50;51.56;100573.81;5103156;27;45406;-58
2021/07/26 04:12:06;;;;;;;;;13.50;12.25;;;;;20.49;51.85;100580.09;5102745;27;46875;-58
2021/07/26 04:14:35;;;;;;;;;16.25;13.50;;;;;20.48;51.37;100573.91;5102849;27;45245;-59
2021/07/26 04:17:01;;;;;;;;;17.25;16.25;;;;;20.48;52.06;100579.25;5103199;27;45449;-58
2021/07/26 04:19:26;;;;;;;;;17.00;13.75;;;;;20.44;51.61;100580.38;5102617;27;45520;-58
2021/07/26 04:21:56;;;;;;;;;17.00;14.00;;;;;20.46;51.45;100579.34;5102755;27;46180;-58
2021/07/26 04:24:21;;;;;;;;;18.00;15.50;;;;;20.46;51.89;100587.34;5103128;27;45481;-58
2021/07/26 04:26:47;;;;;;;;;16.75;16.25;;;;;20.47;51.51;100588.19;5102991;27;45307;-59
2021/07/26 04:29:12;;;;;;;;;18.75;15.50;;;;;20.48;52.03;100586.38;5102833;27;45251;-58
2021/07/26 04:31:37;;;;;;;;;18.50;15.75;;;;;20.45;52.13;100584.75;5102659;27;45979;-59
2021/07/26 04:34:03;;;;;;;;;14.75;13.00;;;;;20.45;52.05;100590.97;5102671;27;45288;-58
2021/07/26 04:36:28;;;;;;;;;17.00;13.25;;;;;20.46;51.71;100584.69;5102957;27;45194;-59
2021/07/26 04:38:53;;;;;;;;;12.75;12.75;;;;;20.45;52.07;100580.28;5082168;27;45419;-58
2021/07/26 04:41:19;;;;;;;;;13.00;12.25;;;;;20.47;52.22;100582.84;5084192;27;53053;-58
2021/07/26 04:43:44;;;;;;;;;24.50;22.75;;;;;20.48;52.29;100586.38;5102614;27;45300;-58
2021/07/26 04:46:09;;;;;;;;;17.50;13.25;;;;;20.48;51.91;100589.03;5084481;27;45520;-58
2021/07/26 04:48:35;;;;;;;;;12.25;11.00;;;;;20.45;52.45;100593.63;5102467;27;45464;-58
2021/07/26 04:51:00;;;;;;;;;18.75;15.00;;;;;20.42;52.17;100591.13;5102476;27;46961;-58
2021/07/26 04:53:26;;;;;;;;;15.00;13.50;;;;;20.45;52.01;100592.75;5102457;27;45330;-58
2021/07/26 04:55:51;;;;;;;;;15.00;15.00;;;;;20.43;52.34;100598.19;5081047;28;45428;-58
2021/07/26 04:58:16;;;;;;;;;14.75;11.50;;;;;20.44;52.04;100599.91;5096116;27;45208;-58
2021/07/26 05:00:41;;;;;;;;;16.50;15.50;;;;;20.44;52.13;100593.72;5102560;27;45857;-59
2021/07/26 05:03:08;;;;;;;;;16.00;16.00;;;;;20.42;52.15;100591.13;5102223;27;45372;-59
2021/07/26 05:05:37;;;;;;;;;11.75;11.25;;;;;20.44;52.05;100593.72;5096421;27;45451;-59
2021/07/26 05:08:03;;;;;;;;;10.50;10.50;;;;;20.41;52.09;100604.56;5095737;27;45252;-58
2021/07/26 05:10:29;;;;;;;;;17.25;14.75;;;;;20.40;52.37;100605.50;5102208;27;46214;-58
2021/07/26 05:12:54;;;;;;;;;13.25;13.25;;;;;20.40;52.35;100597.50;5101793;27;45425;-58
2021/07/26 05:15:19;;;;;;;;;15.25;12.50;;;;;20.39;52.16;100609.09;5102716;27;45295;-58
2021/07/26 05:17:45;;;;;;;;;14.00;10.75;;;;;20.36;52.38;100603.97;5102039;27;45173;-59
2021/07/26 05:20:10;;;;;;;;;14.25;14.00;;;;;20.37;52.37;100609.22;5101912;27;45164;-58
2021/07/26 05:22:39;;;;;;;;;8.50;8.50;;;;;20.38;52.55;100615.41;5101710;27;45236;-58
2021/07/26 05:25:08;;;;;;;;;12.00;12.00;;;;;20.36;52.30;100615.47;5102217;27;45334;-59
2021/07/26 05:27:35;;;;;;;;;15.50;14.50;;;;;20.37;52.84;100616.38;5083329;27;45361;-58
2021/07/26 05:30:00;;;;;;;;;11.25;11.00;;;;;20.33;52.87;100613.00;5101807;27;45344;-58
2021/07/26 05:32:25;;;;;;;;;12.25;11.25;;;;;20.33;52.80;100613.00;5101511;27;45192;-58
2021/07/26 05:34:51;;;;;;;;;13.25;11.25;;;;;20.33;53.19;100615.69;5102038;27;45235;-59
2021/07/26 05:37:17;;;;;;;;;11.25;10.25;;;;;20.35;52.86;100613.78;5101716;27;45477;-59
2021/07/26 05:39:43;;;;;;;;;12.50;11.00;;;;;20.36;52.79;100620.81;5101693;27;46200;-58
2021/07/26 05:42:10;;;;;;;;;13.50;12.75;;;;;20.36;52.79;100620.81;5101495;27;45420;-58
2021/07/26 05:44:39;;;;;;;;;13.00;11.00;;;;;20.36;53.30;100623.50;5102069;27;45326;-58
2021/07/26 05:47:06;;;;;;;;;10.00;8.75;;;;;20.38;53.21;100618.09;5101510;27;45215;-58
2021/07/26 05:49:32;;;;;;;;;12.50;9.50;;;;;20.37;53.10;100616.38;5101505;27;45322;-58
2021/07/26 05:51:57;;;;;;;;;14.00;11.00;;;;;20.36;52.93;100611.97;5101228;27;45355;-58
2021/07/26 05:54:22;;;;;;;;;10.75;9.25;;;;;20.38;53.33;100618.94;5100632;27;45233;-59
2021/07/26 05:56:49;;;;;;;;;8.50;8.25;;;;;20.38;53.50;100613.59;5101345;27;45315;-59
2021/07/26 05:59:16;;;;;;;;;9.75;8.75;;;;;20.40;53.48;100619.72;5101361;27;46242;-58
2021/07/26 06:01:47;;;;;;;;;10.00;10.00;;;;;20.39;53.10;100611.78;5101100;27;45331;-58
2021/07/26 06:04:17;;;;;;;;;9.00;8.50;;;;;20.42;53.01;100615.13;5101415;27;45319;-58
2021/07/26 06:06:44;;;;;;;;;10.25;7.75;;;;;20.42;52.97;100620.47;5088116;27;45371;-58
2021/07/26 06:09:10;;;;;;;;;10.50;9.50;;;;;20.45;53.47;100627.44;5101183;27;47011;-58
2021/07/26 06:11:37;;;;;;;;;10.00;7.00;;;;;20.47;52.94;100620.22;5101081;27;45169;-58
2021/07/26 06:14:03;;;;;;;;;8.25;8.00;;;;;20.46;53.49;100624.72;5101369;27;45445;-59
2021/07/26 06:16:28;;;;;;;;;10.00;8.00;;;;;20.48;53.17;100627.28;5101042;27;45513;-58
2021/07/26 06:18:53;;;;;;;;;9.75;7.00;;;;;20.47;53.77;100625.56;5100672;27;45404;-59
2021/07/26 06:21:20;;;;;;;;;12.00;11.00;;;;;20.46;53.80;100626.50;5081768;27;48930;-59
2021/07/26 06:23:45;;;;;;;;;11.00;9.75;;;;;20.48;53.28;100627.28;5101287;27;45282;-58
2021/07/26 06:26:11;;;;;;;;;9.00;8.50;;;;;20.50;53.68;100627.19;5100887;27;45362;-59
2021/07/26 06:28:36;;;;;;;;;9.50;8.00;;;;;20.53;53.51;100630.53;5100727;27;45958;-59
2021/07/26 06:31:03;;;;;;;;;8.25;7.50;;;;;20.57;53.88;100628.56;5100967;27;45280;-59
2021/07/26 06:33:30;;;;;;;;;7.75;7.00;;;;;20.59;53.15;100629.31;5100916;27;45274;-60
2021/07/26 06:35:56;;;;;;;;;5.75;5.75;;;;;20.58;53.84;100635.63;5082628;27;45291;-58
2021/07/26 06:38:21;;;;;;;;;9.00;7.00;;;;;20.61;53.35;100640.78;5100808;27;45504;-58
2021/07/26 06:40:46;;;;;;;;;9.00;7.25;;;;;20.59;53.38;100632.84;5100743;27;45211;-60
2021/07/26 06:43:12;;;;;;;;;7.00;7.00;;;;;20.63;53.73;100631.72;5082734;27;45465;-59
2021/07/26 06:45:37;;;;;;;;;5.25;5.25;;;;;20.63;53.41;100631.72;5100746;27;45434;-58
2021/07/26 06:48:03;;;;;;;;;9.50;9.50;;;;;20.64;53.97;100632.59;5100727;27;45404;-58
2021/07/26 06:50:28;;;;;;;;;7.00;7.00;;;;;20.61;54.13;100644.28;5100533;27;45310;-59
2021/07/26 06:52:54;;;;;;;;;10.75;7.00;;;;;20.64;53.96;100643.28;5101036;27;45287;-59
2021/07/26 06:55:19;;;;;;;;;8.75;8.00;;;;;20.66;53.75;100633.34;5082279;27;45492;-59
2021/07/26 06:57:44;;;;;;;;;8.75;7.75;;;;;20.68;53.61;100635.91;5079194;28;45302;-59
2021/07/26 07:00:10;;;;;;;;;10.25;7.75;;;;;20.66;53.56;100649.38;5095667;27;45274;-59
2021/07/26 07:02:37;;;;;;;;;10.00;10.00;;;;;20.65;53.51;100647.66;5100753;27;45322;-59
2021/07/26 07:05:02;;;;;;;;;10.50;9.00;;;;;20.64;54.04;100640.59;5098424;27;45624;-59
2021/07/26 07:07:28;;;;;;;;;10.25;9.75;;;;;20.64;53.89;100643.28;5088932;27;45270;-60
2021/07/26 07:09:53;;;;;;;;;12.25;11.50;;;;;20.66;53.43;100646.69;5100234;27;45465;-59
2021/07/26 07:12:19;;;;;;;;;9.50;8.50;;;;;20.67;53.50;100647.56;5100777;27;45149;-59
2021/07/26 07:14:44;;;;;;;;;13.50;11.50;;;;;20.63;54.10;100647.75;5100387;27;45490;-59
2021/07/26 07:17:09;;;;;;;;;8.00;8.00;;;;;20.66;54.25;100645.84;5082194;27;47956;-59
2021/07/26 07:19:38;;;;;;;;;15.00;11.00;;;;;20.67;54.22;100658.25;5100054;27;45140;-59
2021/07/26 07:22:03;;;;;;;;;12.75;11.50;;;;;20.67;54.40;100651.09;5100255;27;45303;-59
2021/07/26 07:24:28;;;;;;;;;10.00;10.00;;;;;20.69;54.13;100654.53;5100176;27;45491;-60
2021/07/26 07:26:54;;;;;;;;;10.25;8.75;;;;;20.71;53.96;100654.47;5100295;27;46196;-59
2021/07/26 07:29:19;;;;;;;;;11.75;10.75;;;;;20.72;54.24;100653.53;5081745;27;45371;-59
2021/07/26 07:31:45;;;;;;;;;15.00;13.75;;;;;20.75;53.98;100656.00;5102050;27;45330;-59
2021/07/26 07:34:12;;;;;;;;;13.25;10.25;;;;;20.78;54.27;100653.19;5103404;27;45260;-59
2021/07/26 07:36:39;;;;;;;;;11.25;10.00;;;;;20.80;54.00;100666.44;5103830;27;46495;-59
2021/07/26 07:39:04;;;;;;;;;14.50;11.25;;;;;20.77;53.73;100654.13;5103559;27;45286;-59
2021/07/26 07:41:30;;;;;;;;;14.75;10.50;;;;;20.78;54.23;100655.84;5085337;27;45234;-59
2021/07/26 07:43:55;;;;;;;;;14.75;14.00;;;;;20.82;53.85;100656.50;5085139;27;45208;-59
2021/07/26 07:46:21;;;;;;;;;13.75;12.00;;;;;20.85;54.26;100662.53;5103596;27;45920;-59
2021/07/26 07:48:47;;;;;;;;;12.25;11.75;;;;;20.84;53.91;100673.31;5103239;27;45230;-59
2021/07/26 07:51:12;;;;;;;;;12.00;11.50;;;;;20.86;53.81;100663.41;5103393;27;45346;-59
2021/07/26 07:53:38;;;;;;;;;16.75;11.75;;;;;20.89;53.77;100671.22;5103237;27;45371;-59
2021/07/26 07:56:04;;;;;;;;;15.25;12.75;;;;;20.90;54.48;100664.94;5103342;27;46086;-59
2021/07/26 07:58:30;;;;;;;;;10.25;9.00;;;;;20.88;54.04;100664.16;5103015;27;45314;-59
2021/07/26 08:00:56;;;;;;;;;9.75;9.00;;;;;20.93;54.23;100678.13;5103384;27;45346;-59
2021/07/26 08:03:22;;;;;;;;;13.75;11.00;;;;;20.92;53.95;100671.06;5102917;27;45334;-59
2021/07/26 08:05:49;;;;;;;;;11.25;10.25;;;;;20.93;53.98;100675.47;5094817;27;45623;-59
2021/07/26 08:08:15;;;;;;;;;14.50;14.25;;;;;20.94;53.95;100669.16;5080550;27;45257;-59
2021/07/26 08:10:41;;;;;;;;;12.75;12.25;;;;;20.97;54.22;100673.44;5084847;27;45278;-59
2021/07/26 08:13:06;;;;;;;;;13.75;11.25;;;;;21.01;54.23;100677.69;5102728;27;45299;-59
2021/07/26 08:15:32;;;;;;;;;14.75;13.00;;;;;21.01;54.09;100677.69;5103034;27;47259;-59
2021/07/26 08:17:57;;;;;;;;;16.50;14.25;;;;;20.97;54.17;100671.66;5084352;27;45623;-59
2021/07/26 08:20:22;;;;;;;;;17.50;13.50;;;;;20.99;54.18;100680.41;5102943;27;45233;-58
2021/07/26 08:22:48;;;;;;;;;10.50;10.00;;;;;21.05;53.93;100682.72;5102822;27;45315;-59
2021/07/26 08:25:14;;;;;;;;;17.25;12.75;;;;;21.02;53.89;100695.41;5102843;27;45665;-59
2021/07/26 08:27:54;;;;;;;;;16.00;15.00;;;;;21.04;53.51;100681.03;5102771;27;45424;-58
2021/07/26 08:30:24;;;;;;;;;12.25;10.00;;;;;21.07;53.76;100686.19;5102609;27;45161;-60
2021/07/26 08:32:50;;;;;;;;;15.75;13.00;;;;;21.13;53.86;100687.63;5102200;27;45402;-59
2021/07/26 08:35:16;;;;;;;;;13.00;11.75;;;;;21.16;53.21;100695.47;5102517;27;45434;-59
2021/07/26 08:37:41;;;;;;;;;12.50;9.00;;;;;21.19;53.30;100686.41;5102499;27;45264;-59
2021/07/26 08:40:07;;;;;;;;;16.00;13.25;;;;;21.20;54.04;100688.97;5102543;27;46038;-59
2021/07/26 08:42:33;;;;;;;;;13.50;11.00;;;;;21.19;53.76;100687.25;5101175;27;45251;-59
2021/07/26 08:44:58;;;;;;;;;13.25;12.50;;;;;21.24;53.64;100695.88;5102488;27;45582;-59
2021/07/26 08:47:24;;;;;;;;;15.25;14.75;;;;;21.27;53.91;100692.16;5102464;27;45260;-59
2021/07/26 08:49:52;;;;;;;;;11.00;11.00;;;;;21.29;53.32;100692.91;5102425;27;45382;-59
2021/07/26 08:52:22;;;;;;;;;10.00;10.00;;;;;21.26;53.76;100690.44;5102299;27;45470;-59
2021/07/26 08:54:49;;;;;;;;;10.00;9.25;;;;;21.39;53.96;100695.88;5102155;27;45459;-59
2021/07/26 08:57:15;;;;;;;;;11.25;10.50;;;;;21.41;53.69;100708.22;5102068;27;45255;-59
2021/07/26 08:59:41;;;;;;;;;9.50;9.00;;;;;21.41;53.95;100702.88;5102250;27;45311;-59
2021/07/26 09:02:07;;;;;;;;;11.50;9.25;;;;;21.45;53.48;100702.69;5102123;27;45474;-59
2021/07/26 09:04:32;;;;;;;;;11.75;10.25;;;;;21.52;52.80;100699.56;5102092;27;45564;-59
2021/07/26 09:06:58;;;;;;;;;15.25;12.00;;;;;21.58;52.94;100711.69;5088326;27;45343;-59
2021/07/26 09:09:43;;;;;;;;;10.75;10.25;;;;;21.56;53.62;100724.31;5083932;27;45382;-59
2021/07/26 09:12:09;;;;;;;;;11.00;9.25;;;;;21.58;53.74;100711.69;5102095;27;45446;-59
2021/07/26 09:14:38;;;;;;;;;11.00;10.50;;;;;21.64;53.64;100708.66;5080442;27;46093;-60
2021/07/26 09:17:03;;;;;;;;;12.75;10.75;;;;;21.72;53.16;100706.38;5102123;27;45236;-59
2021/07/26 09:19:57;;;;;;;;;10.00;9.25;;;;;21.75;53.15;100708.84;5101903;27;45247;-59
2021/07/26 09:22:34;;;;;;;;;11.50;11.25;;;;;21.84;53.46;100703.91;5101819;27;45228;-59
2021/07/26 09:25:20;;;;;;;;;10.00;7.50;;;;;21.96;53.19;100704.94;5101606;27;46192;-59
2021/07/26 09:28:13;;;;;;;;;9.75;9.25;;;;;22.03;52.94;100699.09;5101508;27;45310;-59
2021/07/26 09:30:45;;;;;;;;;9.25;9.25;;;;;22.11;53.07;100703.13;5101653;27;45327;-59
2021/07/26 09:33:32;;;;;;;;;13.50;10.25;;;;;22.14;53.23;100700.22;5088512;27;45361;-59
2021/07/26 09:36:23;;;;;;;;;12.50;11.50;;;;;22.16;53.17;100692.97;5083170;27;46309;-59
2021/07/26 09:38:48;;;;;;;;;10.75;10.25;;;;;22.18;53.25;100702.63;5101457;27;45306;-59
2021/07/26 09:41:17;;;;;;;;;10.75;9.00;;;;;22.23;52.97;100702.34;5083228;27;45775;-58
2021/07/26 09:43:42;;;;;;;;;11.75;10.00;;;;;22.27;52.73;100695.81;5083068;27;45533;-59
2021/07/26 09:46:08;;;;;;;;;9.00;8.50;;;;;22.32;52.63;100706.25;5083077;27;46992;-59
2021/07/26 09:48:34;;;;;;;;;12.00;12.00;;;;;22.31;53.33;100718.75;5101094;27;45224;-58
2021/07/26 09:51:03;;;;;;;;;14.25;9.75;;;;;22.31;52.95;100723.25;5101715;27;45281;-58
2021/07/26 09:53:29;;;;;;;;;13.50;12.00;;;;;22.27;53.70;100717.22;5100982;27;45443;-58
2021/07/26 09:56:12;;;;;;;;;12.00;12.00;;;;;22.25;53.45;100716.50;5101079;27;46142;-58
2021/07/26 09:58:40;;;;;;;;;12.75;10.50;;;;;22.22;53.73;100736.25;5101045;27;45537;-58
2021/07/26 10:01:07;;;;;;;;;12.25;10.25;;;;;22.15;53.49;100731.38;5101276;27;45421;-58
2021/07/26 10:03:34;;;;;;;;;11.00;10.00;;;;;22.05;53.76;100726.63;5100968;27;45197;-58
2021/07/26 10:06:00;;;;;;;;;11.25;10.75;;;;;22.01;54.22;100727.78;5091213;27;46169;-58
2021/07/26 10:08:28;;;;;;;;;18.75;15.00;;;;;21.95;54.23;100722.81;5094283;27;45481;-58
2021/07/26 10:10:53;;;;;;;;;15.75;15.00;;;;;21.88;54.06;100735.69;5062593;28;45473;-58
2021/07/26 10:13:19;;;;;;;;;14.75;14.75;;;;;21.81;54.15;100717.44;5061957;28;45827;-58
2021/07/26 10:15:45;;;;;;;;;15.00;11.50;;;;;21.71;54.47;100731.41;5080779;28;45328;-58
2021/07/26 10:18:10;;;;;;;;;17.50;15.25;;;;;21.64;54.42;100724.69;5080237;28;45296;-58
2021/07/26 10:20:43;;;;;;;;;16.25;13.50;;;;;21.68;54.10;100728.03;5080595;28;45394;-58
2021/07/26 10:23:14;;;;;;;;;14.75;13.25;;;;;21.66;54.38;100721.91;5080519;28;45304;-58
2021/07/26 10:25:44;;;;;;;;;16.75;16.50;;;;;21.65;54.54;100729.09;5080398;28;46806;-58
2021/07/26 10:28:16;;;;;;;;;15.75;14.00;;;;;21.62;54.28;100731.09;5065430;28;45375;-58
2021/07/26 10:30:41;;;;;;;;;15.50;14.75;;;;;21.58;54.92;100735.75;5097927;27;45234;-59
2021/07/26 10:33:07;;;;;;;;;18.25;17.50;;;;;21.58;54.37;100728.63;5086873;27;45513;-58
2021/07/26 10:35:37;;;;;;;;;17.75;17.75;;;;;21.57;54.52;100724.22;5100694;27;45446;-57
2021/07/26 10:38:05;;;;;;;;;16.50;16.50;;;;;21.62;54.87;100726.59;5100852;27;45324;-58
2021/07/26 10:40:38;;;;;;;;;17.00;16.50;;;;;21.67;55.24;100726.31;5100688;27;45220;-57
2021/07/26 10:43:04;;;;;;;;;19.00;17.50;;;;;21.71;54.79;100726.03;5100829;27;45276;-57
2021/07/26 10:45:35;;;;;;;;;19.75;18.75;;;;;21.77;54.70;100722.13;5100376;27;46346;-57
2021/07/26 10:48:19;;;;;;;;;18.25;16.25;;;;;21.78;55.19;100717.66;5100313;27;45316;-58
2021/07/26 10:50:45;;;;;;;;;20.75;18.50;;;;;21.84;54.94;100723.47;5100404;27;45304;-58
2021/07/26 10:53:10;;;;;;;;;18.25;18.25;;;;;21.92;54.91;100720.31;5082057;27;45457;-58
2021/07/26 10:56:03;;;;;;;;;19.00;17.00;;;;;22.00;55.18;100736.75;5100237;27;46303;-57
2021/07/26 10:58:40;;;;;;;;;18.25;16.25;;;;;22.11;54.94;100730.72;5100138;27;45516;-58
2021/07/26 11:01:24;;;;;;;;;16.75;16.75;;;;;22.19;55.59;100736.47;5100576;27;45348;-58
2021/07/26 11:03:57;;;;;;;;;18.25;16.50;;;;;22.19;55.13;100744.50;5100030;27;45457;-58
2021/07/26 11:06:37;;;;;;;;;15.25;15.25;;;;;22.26;54.94;100742.28;5088332;27;46166;-58
2021/07/26 11:09:20;;;;;;;;;14.00;13.75;;;;;22.33;55.20;100738.25;5092536;27;45216;-57
2021/07/26 11:11:53;;;;;;;;;17.25;17.25;;;;;22.34;55.06;100729.28;5103836;27;45331;-58
2021/07/26 11:14:19;;;;;;;;;18.50;14.25;;;;;22.40;55.03;100728.91;5104096;27;45306;-58